sensor_id;sensor_type;location;lat;lon;timestamp;P1;durP1;ratioP1;P2;durP2;ratioP2
59585;SDS011;45408;52.686;7.310;2022-08-19T00:02:23;8.20;;;3.80;;
59585;SDS011;45408;52.686;7.310;2022-08-19T00:04:48;6.05;;;3.63;;
59585;SDS011;45408;52.686;7.310;2022-08-19T00:07:17;5.90;;;3.42;;
59585;SDS011;45408;52.686;7.310;2022-08-19T00:09:42;3.80;;;3.20;;
59585;SDS011;45408;52.686;7.310;2022-08-19T00:12:08;5.18;;;3.67;;
59585;SDS011;45408;52.686;7.310;2022-08-19T00:14:33;4.85;;;3.50;;
59585;SDS011;45408;52.686;7.310;2022-08-19T00:16:59;6.63;;;3.70;;
59585;SDS011;45408;52.686;7.310;2022-08-19T00:19:24;7.67;;;3.73;;
59585;SDS011;45408;52.686;7.310;2022-08-19T00:21:49;6.37;;;4.33;;
59585;SDS011;45408;52.686;7.310;2022-08-19T00:24:15;5.22;;;4.00;;
59585;SDS011;45408;52.686;7.310;2022-08-19T00:26:41;4.43;;;3.70;;
59585;SDS011;45408;52.686;7.310;2022-08-19T00:29:07;6.75;;;3.83;;
59585;SDS011;45408;52.686;7.310;2022-08-19T00:31:32;4.00;;;3.25;;
59585;SDS011;45408;52.686;7.310;2022-08-19T00:33:57;5.30;;;3.53;;
59585;SDS011;45408;52.686;7.310;2022-08-19T00:36:23;5.57;;;3.90;;
59585;SDS011;45408;52.686;7.310;2022-08-19T00:38:48;4.78;;;3.47;;
59585;SDS011;45408;52.686;7.310;2022-08-19T00:41:15;5.97;;;3.38;;
59585;SDS011;45408;52.686;7.310;2022-08-19T00:43:41;4.97;;;3.40;;
59585;SDS011;45408;52.686;7.310;2022-08-19T00:46:06;5.93;;;3.83;;
59585;SDS011;45408;52.686;7.310;2022-08-19T00:48:32;4.72;;;3.58;;
59585;SDS011;45408;52.686;7.310;2022-08-19T00:50:58;4.72;;;3.20;;
59585;SDS011;45408;52.686;7.310;2022-08-19T00:53:24;4.20;;;3.20;;
59585;SDS011;45408;52.686;7.310;2022-08-19T00:55:52;5.87;;;3.70;;
59585;SDS011;45408;52.686;7.310;2022-08-19T00:58:19;5.78;;;3.50;;
59585;SDS011;45408;52.686;7.310;2022-08-19T01:00:45;6.70;;;3.10;;
59585;SDS011;45408;52.686;7.310;2022-08-19T01:03:11;5.72;;;4.03;;
59585;SDS011;45408;52.686;7.310;2022-08-19T01:05:37;5.75;;;3.90;;
59585;SDS011;45408;52.686;7.310;2022-08-19T01:08:04;5.45;;;3.45;;
59585;SDS011;45408;52.686;7.310;2022-08-19T01:10:32;5.43;;;4.40;;
59585;SDS011;45408;52.686;7.310;2022-08-19T01:12:58;6.72;;;4.03;;
59585;SDS011;45408;52.686;7.310;2022-08-19T01:15:26;7.57;;;3.90;;
59585;SDS011;45408;52.686;7.310;2022-08-19T01:20:19;5.22;;;3.75;;
59585;SDS011;45408;52.686;7.310;2022-08-19T01:22:46;4.22;;;3.47;;
59585;SDS011;45408;52.686;7.310;2022-08-19T01:25:13;5.20;;;3.55;;
59585;SDS011;45408;52.686;7.310;2022-08-19T01:27:39;5.25;;;3.85;;
59585;SDS011;45408;52.686;7.310;2022-08-19T01:30:05;4.85;;;3.83;;
59585;SDS011;45408;52.686;7.310;2022-08-19T01:32:30;4.95;;;3.90;;
59585;SDS011;45408;52.686;7.310;2022-08-19T01:34:56;3.90;;;3.50;;
59585;SDS011;45408;52.686;7.310;2022-08-19T01:37:21;5.37;;;4.33;;
59585;SDS011;45408;52.686;7.310;2022-08-19T01:39:46;5.43;;;3.97;;
59585;SDS011;45408;52.686;7.310;2022-08-19T01:42:11;4.65;;;3.97;;
59585;SDS011;45408;52.686;7.310;2022-08-19T01:44:38;7.38;;;4.38;;
59585;SDS011;45408;52.686;7.310;2022-08-19T01:47:05;6.78;;;4.38;;
59585;SDS011;45408;52.686;7.310;2022-08-19T01:49:31;6.25;;;4.63;;
59585;SDS011;45408;52.686;7.310;2022-08-19T01:51:56;7.77;;;4.93;;
59585;SDS011;45408;52.686;7.310;2022-08-19T01:54:23;8.25;;;4.88;;
59585;SDS011;45408;52.686;7.310;2022-08-19T01:56:50;5.53;;;4.72;;
59585;SDS011;45408;52.686;7.310;2022-08-19T01:59:16;5.40;;;4.40;;
59585;SDS011;45408;52.686;7.310;2022-08-19T02:01:42;4.45;;;3.83;;
59585;SDS011;45408;52.686;7.310;2022-08-19T02:04:08;5.97;;;4.55;;
59585;SDS011;45408;52.686;7.310;2022-08-19T02:06:33;5.65;;;4.38;;
59585;SDS011;45408;52.686;7.310;2022-08-19T02:08:58;5.63;;;4.22;;
59585;SDS011;45408;52.686;7.310;2022-08-19T02:11:28;7.10;;;4.80;;
59585;SDS011;45408;52.686;7.310;2022-08-19T02:13:56;5.75;;;4.18;;
59585;SDS011;45408;52.686;7.310;2022-08-19T02:16:22;6.13;;;4.35;;
59585;SDS011;45408;52.686;7.310;2022-08-19T02:18:47;5.05;;;3.72;;
59585;SDS011;45408;52.686;7.310;2022-08-19T02:21:16;5.78;;;3.88;;
59585;SDS011;45408;52.686;7.310;2022-08-19T02:23:41;7.85;;;4.28;;
59585;SDS011;45408;52.686;7.310;2022-08-19T02:26:07;6.85;;;4.10;;
59585;SDS011;45408;52.686;7.310;2022-08-19T02:28:32;5.93;;;4.30;;
59585;SDS011;45408;52.686;7.310;2022-08-19T02:30:57;5.07;;;4.07;;
59585;SDS011;45408;52.686;7.310;2022-08-19T02:33:23;7.20;;;3.80;;
59585;SDS011;45408;52.686;7.310;2022-08-19T02:35:49;4.50;;;3.70;;
59585;SDS011;45408;52.686;7.310;2022-08-19T02:38:14;5.50;;;4.07;;
59585;SDS011;45408;52.686;7.310;2022-08-19T02:41:14;5.18;;;4.07;;
59585;SDS011;45408;52.686;7.310;2022-08-19T02:43:37;5.30;;;3.33;;
59585;SDS011;45408;52.686;7.310;2022-08-19T02:46:23;5.78;;;4.07;;
59585;SDS011;45408;52.686;7.310;2022-08-19T02:48:49;4.72;;;3.50;;
59585;SDS011;45408;52.686;7.310;2022-08-19T02:51:18;4.28;;;3.30;;
59585;SDS011;45408;52.686;7.310;2022-08-19T02:53:44;6.05;;;3.60;;
59585;SDS011;45408;52.686;7.310;2022-08-19T02:56:09;6.13;;;3.55;;
59585;SDS011;45408;52.686;7.310;2022-08-19T02:58:34;5.43;;;3.73;;
59585;SDS011;45408;52.686;7.310;2022-08-19T03:00:59;4.80;;;3.63;;
59585;SDS011;45408;52.686;7.310;2022-08-19T03:03:25;5.10;;;3.50;;
59585;SDS011;45408;52.686;7.310;2022-08-19T03:05:50;4.68;;;3.70;;
59585;SDS011;45408;52.686;7.310;2022-08-19T03:08:16;4.55;;;3.92;;
59585;SDS011;45408;52.686;7.310;2022-08-19T03:10:44;6.25;;;4.15;;
59585;SDS011;45408;52.686;7.310;2022-08-19T03:13:12;6.28;;;4.70;;
59585;SDS011;45408;52.686;7.310;2022-08-19T03:15:39;5.30;;;3.97;;
59585;SDS011;45408;52.686;7.310;2022-08-19T03:18:04;6.22;;;3.55;;
59585;SDS011;45408;52.686;7.310;2022-08-19T03:20:29;4.67;;;3.40;;
59585;SDS011;45408;52.686;7.310;2022-08-19T03:22:54;5.90;;;3.90;;
59585;SDS011;45408;52.686;7.310;2022-08-19T03:25:19;5.33;;;3.87;;
59585;SDS011;45408;52.686;7.310;2022-08-19T03:27:45;5.30;;;3.83;;
59585;SDS011;45408;52.686;7.310;2022-08-19T03:30:13;4.40;;;3.50;;
59585;SDS011;45408;52.686;7.310;2022-08-19T03:32:38;4.30;;;3.30;;
59585;SDS011;45408;52.686;7.310;2022-08-19T03:35:04;6.17;;;4.00;;
59585;SDS011;45408;52.686;7.310;2022-08-19T03:37:29;6.00;;;4.55;;
59585;SDS011;45408;52.686;7.310;2022-08-19T03:39:55;8.60;;;4.47;;
59585;SDS011;45408;52.686;7.310;2022-08-19T03:42:20;7.47;;;4.00;;
59585;SDS011;45408;52.686;7.310;2022-08-19T03:44:45;6.30;;;4.40;;
59585;SDS011;45408;52.686;7.310;2022-08-19T03:47:10;7.73;;;4.20;;
59585;SDS011;45408;52.686;7.310;2022-08-19T03:49:40;7.30;;;4.35;;
59585;SDS011;45408;52.686;7.310;2022-08-19T03:52:06;6.30;;;4.53;;
59585;SDS011;45408;52.686;7.310;2022-08-19T03:54:34;8.07;;;4.50;;
59585;SDS011;45408;52.686;7.310;2022-08-19T03:56:59;5.43;;;4.20;;
59585;SDS011;45408;52.686;7.310;2022-08-19T03:59:26;6.78;;;4.65;;
59585;SDS011;45408;52.686;7.310;2022-08-19T04:01:52;12.15;;;4.47;;
59585;SDS011;45408;52.686;7.310;2022-08-19T04:04:18;6.10;;;4.40;;
59585;SDS011;45408;52.686;7.310;2022-08-19T04:06:43;7.60;;;4.65;;
59585;SDS011;45408;52.686;7.310;2022-08-19T04:09:09;6.65;;;4.50;;
59585;SDS011;45408;52.686;7.310;2022-08-19T04:11:45;7.63;;;5.63;;
59585;SDS011;45408;52.686;7.310;2022-08-19T04:14:12;6.88;;;5.03;;
59585;SDS011;45408;52.686;7.310;2022-08-19T04:16:37;8.52;;;5.28;;
59585;SDS011;45408;52.686;7.310;2022-08-19T04:19:03;7.97;;;4.63;;
59585;SDS011;45408;52.686;7.310;2022-08-19T04:21:28;7.53;;;4.80;;
59585;SDS011;45408;52.686;7.310;2022-08-19T04:23:54;9.60;;;5.13;;
59585;SDS011;45408;52.686;7.310;2022-08-19T04:26:20;9.68;;;5.60;;
59585;SDS011;45408;52.686;7.310;2022-08-19T04:28:46;10.95;;;5.82;;
59585;SDS011;45408;52.686;7.310;2022-08-19T04:31:15;9.97;;;5.97;;
59585;SDS011;45408;52.686;7.310;2022-08-19T04:33:41;7.10;;;5.43;;
59585;SDS011;45408;52.686;7.310;2022-08-19T04:36:06;7.45;;;5.68;;
59585;SDS011;45408;52.686;7.310;2022-08-19T04:38:32;8.98;;;6.20;;
59585;SDS011;45408;52.686;7.310;2022-08-19T04:40:57;8.70;;;6.13;;
59585;SDS011;45408;52.686;7.310;2022-08-19T04:43:41;9.65;;;5.50;;
59585;SDS011;45408;52.686;7.310;2022-08-19T04:46:06;7.20;;;5.17;;
59585;SDS011;45408;52.686;7.310;2022-08-19T04:48:32;7.97;;;5.72;;
59585;SDS011;45408;52.686;7.310;2022-08-19T04:50:58;8.13;;;6.13;;
59585;SDS011;45408;52.686;7.310;2022-08-19T04:53:24;8.23;;;5.80;;
59585;SDS011;45408;52.686;7.310;2022-08-19T04:55:53;6.88;;;5.28;;
59585;SDS011;45408;52.686;7.310;2022-08-19T04:58:19;8.88;;;5.40;;
59585;SDS011;45408;52.686;7.310;2022-08-19T05:00:44;9.30;;;6.10;;
59585;SDS011;45408;52.686;7.310;2022-08-19T05:03:09;7.97;;;5.80;;
59585;SDS011;45408;52.686;7.310;2022-08-19T05:05:41;7.68;;;5.43;;
59585;SDS011;45408;52.686;7.310;2022-08-19T05:08:06;8.48;;;5.88;;
59585;SDS011;45408;52.686;7.310;2022-08-19T05:10:34;8.90;;;5.72;;
59585;SDS011;45408;52.686;7.310;2022-08-19T05:12:59;9.13;;;6.03;;
59585;SDS011;45408;52.686;7.310;2022-08-19T05:15:24;9.03;;;5.77;;
59585;SDS011;45408;52.686;7.310;2022-08-19T05:17:49;7.83;;;6.33;;
59585;SDS011;45408;52.686;7.310;2022-08-19T05:20:33;8.55;;;6.55;;
59585;SDS011;45408;52.686;7.310;2022-08-19T05:23:17;9.40;;;6.13;;
59585;SDS011;45408;52.686;7.310;2022-08-19T05:25:43;11.45;;;6.60;;
59585;SDS011;45408;52.686;7.310;2022-08-19T05:28:08;8.83;;;6.67;;
59585;SDS011;45408;52.686;7.310;2022-08-19T05:30:33;8.50;;;6.43;;
59585;SDS011;45408;52.686;7.310;2022-08-19T05:32:59;9.43;;;6.78;;
59585;SDS011;45408;52.686;7.310;2022-08-19T05:35:24;13.35;;;7.18;;
59585;SDS011;45408;52.686;7.310;2022-08-19T05:37:49;9.75;;;6.57;;
59585;SDS011;45408;52.686;7.310;2022-08-19T05:40:15;10.02;;;6.53;;
59585;SDS011;45408;52.686;7.310;2022-08-19T05:42:40;9.50;;;6.63;;
59585;SDS011;45408;52.686;7.310;2022-08-19T05:45:06;10.93;;;7.05;;
59585;SDS011;45408;52.686;7.310;2022-08-19T05:47:31;10.27;;;6.82;;
59585;SDS011;45408;52.686;7.310;2022-08-19T05:49:57;12.05;;;7.93;;
59585;SDS011;45408;52.686;7.310;2022-08-19T05:52:22;11.23;;;6.93;;
59585;SDS011;45408;52.686;7.310;2022-08-19T05:54:47;11.73;;;7.03;;
59585;SDS011;45408;52.686;7.310;2022-08-19T05:57:14;9.30;;;6.40;;
59585;SDS011;45408;52.686;7.310;2022-08-19T05:59:40;11.93;;;7.20;;
59585;SDS011;45408;52.686;7.310;2022-08-19T06:02:05;9.90;;;7.00;;
59585;SDS011;45408;52.686;7.310;2022-08-19T06:04:31;11.07;;;7.05;;
59585;SDS011;45408;52.686;7.310;2022-08-19T06:06:56;14.00;;;6.60;;
59585;SDS011;45408;52.686;7.310;2022-08-19T06:09:22;10.80;;;7.35;;
59585;SDS011;45408;52.686;7.310;2022-08-19T06:11:51;10.88;;;7.30;;
59585;SDS011;45408;52.686;7.310;2022-08-19T06:14:24;11.75;;;7.15;;
59585;SDS011;45408;52.686;7.310;2022-08-19T06:16:49;12.35;;;8.25;;
59585;SDS011;45408;52.686;7.310;2022-08-19T06:19:17;15.32;;;8.00;;
59585;SDS011;45408;52.686;7.310;2022-08-19T06:21:44;11.23;;;7.35;;
59585;SDS011;45408;52.686;7.310;2022-08-19T06:24:10;12.05;;;7.80;;
59585;SDS011;45408;52.686;7.310;2022-08-19T06:26:37;12.75;;;8.38;;
59585;SDS011;45408;52.686;7.310;2022-08-19T06:29:03;13.13;;;8.25;;
59585;SDS011;45408;52.686;7.310;2022-08-19T06:31:30;11.90;;;8.27;;
59585;SDS011;45408;52.686;7.310;2022-08-19T06:33:58;15.40;;;8.05;;
59585;SDS011;45408;52.686;7.310;2022-08-19T06:36:25;12.43;;;8.77;;
59585;SDS011;45408;52.686;7.310;2022-08-19T06:38:54;13.15;;;8.43;;
59585;SDS011;45408;52.686;7.310;2022-08-19T06:41:21;15.15;;;8.88;;
59585;SDS011;45408;52.686;7.310;2022-08-19T06:43:46;12.23;;;8.33;;
59585;SDS011;45408;52.686;7.310;2022-08-19T06:46:14;20.88;;;9.98;;
59585;SDS011;45408;52.686;7.310;2022-08-19T06:48:40;16.30;;;9.70;;
59585;SDS011;45408;52.686;7.310;2022-08-19T06:51:05;14.13;;;9.75;;
59585;SDS011;45408;52.686;7.310;2022-08-19T06:53:31;13.43;;;9.57;;
59585;SDS011;45408;52.686;7.310;2022-08-19T06:55:57;18.05;;;10.43;;
59585;SDS011;45408;52.686;7.310;2022-08-19T06:58:25;18.08;;;10.90;;
59585;SDS011;45408;52.686;7.310;2022-08-19T07:00:50;14.43;;;10.27;;
59585;SDS011;45408;52.686;7.310;2022-08-19T07:03:16;9.07;;;5.30;;
59585;SDS011;45408;52.686;7.310;2022-08-19T07:05:44;14.77;;;6.15;;
59585;SDS011;45408;52.686;7.310;2022-08-19T07:08:18;15.00;;;9.40;;
59585;SDS011;45408;52.686;7.310;2022-08-19T07:10:45;13.77;;;9.25;;
59585;SDS011;45408;52.686;7.310;2022-08-19T07:13:11;14.43;;;8.98;;
59585;SDS011;45408;52.686;7.310;2022-08-19T07:15:36;15.02;;;9.88;;
59585;SDS011;45408;52.686;7.310;2022-08-19T07:18:02;21.92;;;9.63;;
59585;SDS011;45408;52.686;7.310;2022-08-19T07:20:27;13.75;;;8.70;;
59585;SDS011;45408;52.686;7.310;2022-08-19T07:22:53;16.47;;;9.70;;
59585;SDS011;45408;52.686;7.310;2022-08-19T07:25:18;14.80;;;9.30;;
59585;SDS011;45408;52.686;7.310;2022-08-19T07:27:45;11.93;;;9.05;;
59585;SDS011;45408;52.686;7.310;2022-08-19T07:30:13;15.20;;;9.45;;
59585;SDS011;45408;52.686;7.310;2022-08-19T07:32:39;15.60;;;9.35;;
59585;SDS011;45408;52.686;7.310;2022-08-19T07:35:04;10.43;;;8.43;;
59585;SDS011;45408;52.686;7.310;2022-08-19T07:37:31;11.33;;;8.13;;
59585;SDS011;45408;52.686;7.310;2022-08-19T07:39:56;17.97;;;9.80;;
59585;SDS011;45408;52.686;7.310;2022-08-19T07:42:21;14.97;;;8.77;;
59585;SDS011;45408;52.686;7.310;2022-08-19T07:44:46;13.60;;;9.07;;
59585;SDS011;45408;52.686;7.310;2022-08-19T07:47:12;20.67;;;11.43;;
59585;SDS011;45408;52.686;7.310;2022-08-19T07:49:37;16.95;;;10.00;;
59585;SDS011;45408;52.686;7.310;2022-08-19T07:52:06;18.27;;;10.77;;
59585;SDS011;45408;52.686;7.310;2022-08-19T07:54:33;14.95;;;10.00;;
59585;SDS011;45408;52.686;7.310;2022-08-19T07:56:59;16.50;;;10.20;;
59585;SDS011;45408;52.686;7.310;2022-08-19T07:59:25;14.30;;;9.88;;
59585;SDS011;45408;52.686;7.310;2022-08-19T08:01:50;16.65;;;8.98;;
59585;SDS011;45408;52.686;7.310;2022-08-19T08:04:16;16.08;;;9.63;;
59585;SDS011;45408;52.686;7.310;2022-08-19T08:07:00;12.05;;;9.20;;
59585;SDS011;45408;52.686;7.310;2022-08-19T08:09:44;12.95;;;9.05;;
59585;SDS011;45408;52.686;7.310;2022-08-19T08:12:11;14.15;;;9.82;;
59585;SDS011;45408;52.686;7.310;2022-08-19T08:14:38;21.63;;;10.98;;
59585;SDS011;45408;52.686;7.310;2022-08-19T08:17:05;21.02;;;11.25;;
59585;SDS011;45408;52.686;7.310;2022-08-19T08:19:30;19.92;;;9.55;;
59585;SDS011;45408;52.686;7.310;2022-08-19T08:21:57;19.42;;;9.93;;
59585;SDS011;45408;52.686;7.310;2022-08-19T08:24:23;15.90;;;9.93;;
59585;SDS011;45408;52.686;7.310;2022-08-19T08:26:48;17.25;;;10.32;;
59585;SDS011;45408;52.686;7.310;2022-08-19T08:29:14;14.68;;;10.20;;
59585;SDS011;45408;52.686;7.310;2022-08-19T08:31:40;12.18;;;8.95;;
59585;SDS011;45408;52.686;7.310;2022-08-19T08:34:06;13.95;;;8.30;;
59585;SDS011;45408;52.686;7.310;2022-08-19T08:36:32;10.90;;;7.65;;
59585;SDS011;45408;52.686;7.310;2022-08-19T08:39:00;11.90;;;8.35;;
59585;SDS011;45408;52.686;7.310;2022-08-19T08:41:31;12.70;;;8.30;;
59585;SDS011;45408;52.686;7.310;2022-08-19T08:43:57;11.02;;;7.60;;
59585;SDS011;45408;52.686;7.310;2022-08-19T08:46:31;16.73;;;8.80;;
59585;SDS011;45408;52.686;7.310;2022-08-19T08:51:25;14.00;;;9.27;;
59585;SDS011;45408;52.686;7.310;2022-08-19T08:56:18;12.85;;;8.07;;
59585;SDS011;45408;52.686;7.310;2022-08-19T08:58:58;14.32;;;8.32;;
59585;SDS011;45408;52.686;7.310;2022-08-19T09:01:24;10.82;;;7.40;;
59585;SDS011;45408;52.686;7.310;2022-08-19T09:03:49;13.85;;;8.82;;
59585;SDS011;45408;52.686;7.310;2022-08-19T09:06:21;13.82;;;7.95;;
59585;SDS011;45408;52.686;7.310;2022-08-19T09:11:33;15.50;;;9.13;;
59585;SDS011;45408;52.686;7.310;2022-08-19T09:16:45;10.38;;;7.43;;
59585;SDS011;45408;52.686;7.310;2022-08-19T09:19:10;13.77;;;6.78;;
59585;SDS011;45408;52.686;7.310;2022-08-19T09:21:35;10.73;;;7.35;;
59585;SDS011;45408;52.686;7.310;2022-08-19T09:24:01;13.55;;;7.03;;
59585;SDS011;45408;52.686;7.310;2022-08-19T09:26:27;12.57;;;8.90;;
59585;SDS011;45408;52.686;7.310;2022-08-19T09:28:53;11.07;;;7.07;;
59585;SDS011;45408;52.686;7.310;2022-08-19T09:31:20;10.57;;;8.23;;
59585;SDS011;45408;52.686;7.310;2022-08-19T09:33:46;9.98;;;6.82;;
59585;SDS011;45408;52.686;7.310;2022-08-19T09:36:12;8.48;;;6.07;;
59585;SDS011;45408;52.686;7.310;2022-08-19T09:38:38;6.10;;;5.20;;
59585;SDS011;45408;52.686;7.310;2022-08-19T09:41:07;11.90;;;7.57;;
59585;SDS011;45408;52.686;7.310;2022-08-19T09:43:32;7.75;;;4.80;;
59585;SDS011;45408;52.686;7.310;2022-08-19T09:45:59;11.07;;;5.00;;
59585;SDS011;45408;52.686;7.310;2022-08-19T09:48:25;8.40;;;6.10;;
59585;SDS011;45408;52.686;7.310;2022-08-19T09:50:50;11.27;;;6.32;;
59585;SDS011;45408;52.686;7.310;2022-08-19T09:53:16;10.10;;;5.25;;
59585;SDS011;45408;52.686;7.310;2022-08-19T09:55:42;8.80;;;6.15;;
59585;SDS011;45408;52.686;7.310;2022-08-19T09:58:07;6.68;;;4.82;;
59585;SDS011;45408;52.686;7.310;2022-08-19T10:00:33;7.45;;;5.13;;
59585;SDS011;45408;52.686;7.310;2022-08-19T10:02:58;5.57;;;4.67;;
59585;SDS011;45408;52.686;7.310;2022-08-19T10:05:23;6.00;;;4.40;;
59585;SDS011;45408;52.686;7.310;2022-08-19T10:08:07;7.30;;;5.05;;
59585;SDS011;45408;52.686;7.310;2022-08-19T10:10:35;8.50;;;4.90;;
59585;SDS011;45408;52.686;7.310;2022-08-19T10:13:03;5.70;;;3.75;;
59585;SDS011;45408;52.686;7.310;2022-08-19T10:15:29;5.97;;;3.83;;
59585;SDS011;45408;52.686;7.310;2022-08-19T10:17:55;6.97;;;4.10;;
59585;SDS011;45408;52.686;7.310;2022-08-19T10:20:21;6.93;;;3.80;;
59585;SDS011;45408;52.686;7.310;2022-08-19T10:22:47;6.68;;;4.10;;
59585;SDS011;45408;52.686;7.310;2022-08-19T10:25:13;8.18;;;4.93;;
59585;SDS011;45408;52.686;7.310;2022-08-19T10:27:39;12.98;;;8.30;;
59585;SDS011;45408;52.686;7.310;2022-08-19T10:30:05;8.50;;;6.05;;
59585;SDS011;45408;52.686;7.310;2022-08-19T10:32:34;13.13;;;6.00;;
59585;SDS011;45408;52.686;7.310;2022-08-19T10:34:59;6.07;;;4.28;;
59585;SDS011;45408;52.686;7.310;2022-08-19T10:37:25;7.78;;;4.68;;
59585;SDS011;45408;52.686;7.310;2022-08-19T10:39:51;8.05;;;4.50;;
59585;SDS011;45408;52.686;7.310;2022-08-19T10:42:19;5.95;;;4.20;;
59585;SDS011;45408;52.686;7.310;2022-08-19T10:44:46;6.53;;;4.85;;
59585;SDS011;45408;52.686;7.310;2022-08-19T10:47:14;11.57;;;5.20;;
59585;SDS011;45408;52.686;7.310;2022-08-19T10:49:40;6.57;;;5.00;;
59585;SDS011;45408;52.686;7.310;2022-08-19T10:52:25;9.80;;;5.55;;
59585;SDS011;45408;52.686;7.310;2022-08-19T10:55:00;8.82;;;5.78;;
59585;SDS011;45408;52.686;7.310;2022-08-19T10:57:44;5.88;;;4.28;;
59585;SDS011;45408;52.686;7.310;2022-08-19T11:00:10;7.30;;;6.07;;
59585;SDS011;45408;52.686;7.310;2022-08-19T11:02:38;6.88;;;5.15;;
59585;SDS011;45408;52.686;7.310;2022-08-19T11:05:04;9.20;;;5.78;;
59585;SDS011;45408;52.686;7.310;2022-08-19T11:07:31;7.97;;;4.78;;
59585;SDS011;45408;52.686;7.310;2022-08-19T11:09:57;9.43;;;5.05;;
59585;SDS011;45408;52.686;7.310;2022-08-19T11:12:23;10.30;;;5.20;;
59585;SDS011;45408;52.686;7.310;2022-08-19T11:14:49;6.53;;;5.07;;
59585;SDS011;45408;52.686;7.310;2022-08-19T11:17:15;7.03;;;4.43;;
59585;SDS011;45408;52.686;7.310;2022-08-19T11:19:41;5.13;;;4.10;;
59585;SDS011;45408;52.686;7.310;2022-08-19T11:22:07;8.60;;;4.68;;
59585;SDS011;45408;52.686;7.310;2022-08-19T11:24:34;5.38;;;4.30;;
59585;SDS011;45408;52.686;7.310;2022-08-19T11:27:01;8.30;;;4.07;;
59585;SDS011;45408;52.686;7.310;2022-08-19T11:29:29;13.35;;;5.78;;
59585;SDS011;45408;52.686;7.310;2022-08-19T11:31:55;7.07;;;5.03;;
59585;SDS011;45408;52.686;7.310;2022-08-19T11:34:22;9.57;;;5.75;;
59585;SDS011;45408;52.686;7.310;2022-08-19T11:36:48;11.02;;;5.32;;
59585;SDS011;45408;52.686;7.310;2022-08-19T11:39:15;6.15;;;4.35;;
59585;SDS011;45408;52.686;7.310;2022-08-19T11:41:41;6.85;;;4.55;;
59585;SDS011;45408;52.686;7.310;2022-08-19T11:44:07;6.13;;;4.70;;
59585;SDS011;45408;52.686;7.310;2022-08-19T11:46:35;7.03;;;5.10;;
59585;SDS011;45408;52.686;7.310;2022-08-19T11:49:01;5.47;;;4.40;;
59585;SDS011;45408;52.686;7.310;2022-08-19T11:51:28;7.57;;;4.60;;
59585;SDS011;45408;52.686;7.310;2022-08-19T11:53:54;8.23;;;5.47;;
59585;SDS011;45408;52.686;7.310;2022-08-19T11:56:21;10.65;;;4.35;;
59585;SDS011;45408;52.686;7.310;2022-08-19T11:58:46;3.83;;;3.10;;
59585;SDS011;45408;52.686;7.310;2022-08-19T12:01:13;6.90;;;4.53;;
59585;SDS011;45408;52.686;7.310;2022-08-19T12:03:42;7.05;;;4.47;;
59585;SDS011;45408;52.686;7.310;2022-08-19T12:06:09;7.47;;;4.00;;
59585;SDS011;45408;52.686;7.310;2022-08-19T12:08:37;6.45;;;4.82;;
59585;SDS011;45408;52.686;7.310;2022-08-19T12:11:03;6.63;;;5.07;;
59585;SDS011;45408;52.686;7.310;2022-08-19T12:13:29;8.43;;;5.00;;
59585;SDS011;45408;52.686;7.310;2022-08-19T12:15:56;6.30;;;5.20;;
59585;SDS011;45408;52.686;7.310;2022-08-19T12:18:21;6.40;;;3.92;;
59585;SDS011;45408;52.686;7.310;2022-08-19T12:20:47;7.55;;;5.00;;
59585;SDS011;45408;52.686;7.310;2022-08-19T12:23:12;8.13;;;5.63;;
59585;SDS011;45408;52.686;7.310;2022-08-19T12:25:42;6.38;;;4.65;;
59585;SDS011;45408;52.686;7.310;2022-08-19T12:28:13;8.25;;;4.80;;
59585;SDS011;45408;52.686;7.310;2022-08-19T12:30:38;7.27;;;4.70;;
59585;SDS011;45408;52.686;7.310;2022-08-19T12:33:03;7.63;;;5.23;;
59585;SDS011;45408;52.686;7.310;2022-08-19T12:35:28;4.43;;;3.80;;
59585;SDS011;45408;52.686;7.310;2022-08-19T12:37:55;5.45;;;4.78;;
59585;SDS011;45408;52.686;7.310;2022-08-19T12:40:20;8.97;;;6.20;;
59585;SDS011;45408;52.686;7.310;2022-08-19T12:42:45;7.57;;;6.03;;
59585;SDS011;45408;52.686;7.310;2022-08-19T12:45:12;6.63;;;5.35;;
59585;SDS011;45408;52.686;7.310;2022-08-19T12:47:38;8.27;;;5.85;;
59585;SDS011;45408;52.686;7.310;2022-08-19T12:50:03;7.28;;;5.35;;
59585;SDS011;45408;52.686;7.310;2022-08-19T12:52:31;6.90;;;5.57;;
59585;SDS011;45408;52.686;7.310;2022-08-19T12:54:57;9.63;;;5.80;;
59585;SDS011;45408;52.686;7.310;2022-08-19T12:57:23;8.02;;;5.45;;
59585;SDS011;45408;52.686;7.310;2022-08-19T12:59:51;6.93;;;4.85;;
59585;SDS011;45408;52.686;7.310;2022-08-19T13:02:18;6.13;;;5.18;;
59585;SDS011;45408;52.686;7.310;2022-08-19T13:04:44;6.15;;;5.20;;
59585;SDS011;45408;52.686;7.310;2022-08-19T13:07:10;8.25;;;5.63;;
59585;SDS011;45408;52.686;7.310;2022-08-19T13:09:36;7.25;;;5.28;;
59585;SDS011;45408;52.686;7.310;2022-08-19T13:12:04;6.40;;;5.43;;
59585;SDS011;45408;52.686;7.310;2022-08-19T13:14:33;7.10;;;5.03;;
59585;SDS011;45408;52.686;7.310;2022-08-19T13:17:05;6.15;;;4.43;;
59585;SDS011;45408;52.686;7.310;2022-08-19T13:19:32;6.50;;;4.97;;
59585;SDS011;45408;52.686;7.310;2022-08-19T13:22:07;7.88;;;4.50;;
59585;SDS011;45408;52.686;7.310;2022-08-19T13:24:33;5.40;;;4.63;;
59585;SDS011;45408;52.686;7.310;2022-08-19T13:27:01;6.90;;;5.17;;
59585;SDS011;45408;52.686;7.310;2022-08-19T13:29:27;7.07;;;4.40;;
59585;SDS011;45408;52.686;7.310;2022-08-19T13:32:19;6.30;;;4.43;;
59585;SDS011;45408;52.686;7.310;2022-08-19T13:35:04;6.78;;;5.00;;
59585;SDS011;45408;52.686;7.310;2022-08-19T13:37:30;6.80;;;5.35;;
59585;SDS011;45408;52.686;7.310;2022-08-19T13:40:16;6.25;;;4.65;;
59585;SDS011;45408;52.686;7.310;2022-08-19T13:42:43;7.47;;;5.43;;
59585;SDS011;45408;52.686;7.310;2022-08-19T13:45:12;11.23;;;5.35;;
59585;SDS011;45408;52.686;7.310;2022-08-19T13:47:38;6.60;;;5.13;;
59585;SDS011;45408;52.686;7.310;2022-08-19T13:50:11;5.60;;;5.00;;
59585;SDS011;45408;52.686;7.310;2022-08-19T13:52:37;7.03;;;5.80;;
59585;SDS011;45408;52.686;7.310;2022-08-19T13:55:03;9.38;;;6.15;;
59585;SDS011;45408;52.686;7.310;2022-08-19T13:57:29;10.20;;;6.47;;
59585;SDS011;45408;52.686;7.310;2022-08-19T13:59:55;8.40;;;5.20;;
59585;SDS011;45408;52.686;7.310;2022-08-19T14:02:20;8.93;;;6.45;;
59585;SDS011;45408;52.686;7.310;2022-08-19T14:04:48;6.85;;;6.15;;
59585;SDS011;45408;52.686;7.310;2022-08-19T14:07:14;10.35;;;5.55;;
59585;SDS011;45408;52.686;7.310;2022-08-19T14:09:40;9.10;;;5.97;;
59585;SDS011;45408;52.686;7.310;2022-08-19T14:12:06;6.72;;;5.50;;
59585;SDS011;45408;52.686;7.310;2022-08-19T14:14:32;9.95;;;5.40;;
59585;SDS011;45408;52.686;7.310;2022-08-19T14:16:57;7.65;;;5.63;;
59585;SDS011;45408;52.686;7.310;2022-08-19T14:19:23;5.80;;;4.72;;
59585;SDS011;45408;52.686;7.310;2022-08-19T14:21:49;8.50;;;5.78;;
59585;SDS011;45408;52.686;7.310;2022-08-19T14:24:15;7.43;;;4.85;;
59585;SDS011;45408;52.686;7.310;2022-08-19T14:26:41;8.40;;;5.75;;
59585;SDS011;45408;52.686;7.310;2022-08-19T14:29:07;6.35;;;5.50;;
59585;SDS011;45408;52.686;7.310;2022-08-19T14:31:33;8.75;;;5.80;;
59585;SDS011;45408;52.686;7.310;2022-08-19T14:33:59;7.53;;;4.68;;
59585;SDS011;45408;52.686;7.310;2022-08-19T14:36:25;7.35;;;5.70;;
59585;SDS011;45408;52.686;7.310;2022-08-19T14:38:51;5.55;;;4.70;;
59585;SDS011;45408;52.686;7.310;2022-08-19T14:41:18;5.38;;;4.82;;
59585;SDS011;45408;52.686;7.310;2022-08-19T14:43:48;10.13;;;6.35;;
59585;SDS011;45408;52.686;7.310;2022-08-19T14:46:15;7.18;;;4.95;;
59585;SDS011;45408;52.686;7.310;2022-08-19T14:48:41;6.50;;;5.82;;
59585;SDS011;45408;52.686;7.310;2022-08-19T14:51:07;9.35;;;6.05;;
59585;SDS011;45408;52.686;7.310;2022-08-19T14:53:33;8.93;;;5.40;;
59585;SDS011;45408;52.686;7.310;2022-08-19T14:55:59;9.93;;;7.05;;